Highworth, United Kingdom
Current Conditions -  °F | °C
As of 3:58 AM on Friday 31 Oct 2014 (Local Time) from EGVA Reporting Station
Haze Haze  
Wind Chill: 57°   Ceiling: Unl
Heat Index: 57°   Visibility: 6mi
Dew Point: 57°   Wind: 5mph
Humidity: 100%   Direction: 210°SSW
Pressure: 30"   Gusts: NA
Location:  51.63°N, 1.71°W
Report Text: EGVA 310358Z AUTO 21004KT 9000 BR CLR 14/14 A3000 RMK AO2 SLP161 P2480 T01390139
Loading
Personal Weather Stations






























Interactive Weather Map
Tropical Storm Tracking
New forecast layout! Learn more

10-Day Weather Forecast

Advertisements
Track Severe Weather on mobile